Time;durP1;ratioP1;P1;durP2;ratioP2;P2;SDS_P1;SDS_P2;PMS_P1;PMS_P2;Temp;Humidity;BMP_temperature;BMP_pressure;BME280_temperature;BME280_humidity;BME280_pressure;Samples;Min_cycle;Max_cycle;Signal;HPM_P1;HPM_P2
2023/01/15 00:02:06;;;;;;;5.07;2.80;;;3.70;99.90;;;;;;5050204;28;20076;-65
2023/01/15 00:04:32;;;;;;;4.90;2.58;;;3.80;99.90;;;;;;5031828;28;20048;-65
2023/01/15 00:06:59;;;;;;;7.30;2.45;;;3.80;99.90;;;;;;5019417;28;20052;-65
2023/01/15 00:09:26;;;;;;;5.13;2.45;;;3.80;99.90;;;;;;5033833;28;20037;-65
2023/01/15 00:11:53;;;;;;;5.03;2.55;;;3.80;99.90;;;;;;5027978;28;20118;-65
2023/01/15 00:14:20;;;;;;;4.80;2.20;;;3.70;99.90;;;;;;5046063;28;20045;-66
2023/01/15 00:16:51;;;;;;;5.97;2.83;;;3.70;99.90;;;;;;5050695;28;20056;-66
2023/01/15 00:19:18;;;;;;;4.43;2.13;;;3.70;99.90;;;;;;5051211;28;20094;-66
2023/01/15 00:21:44;;;;;;;5.85;2.50;;;3.70;99.90;;;;;;5027510;28;20061;-66
2023/01/15 00:29:45;;;;;;;5.28;2.22;;;3.80;99.90;;;;;;5029257;28;20041;-66
2023/01/15 00:32:12;;;;;;;4.55;2.10;;;3.90;99.90;;;;;;5011057;28;20699;-64
2023/01/15 00:34:38;;;;;;;5.25;2.10;;;3.90;99.90;;;;;;5031970;28;20131;-63
2023/01/15 00:37:05;;;;;;;5.75;2.50;;;4.00;99.90;;;;;;5023402;28;20041;-65
2023/01/15 00:39:33;;;;;;;3.70;1.98;;;4.00;99.90;;;;;;5013569;28;20072;-66
2023/01/15 00:42:00;;;;;;;7.35;2.30;;;4.00;99.90;;;;;;5013589;28;20066;-66
2023/01/15 00:44:26;;;;;;;5.90;2.22;;;4.10;99.90;;;;;;5039925;28;20316;-67
2023/01/15 00:46:53;;;;;;;6.78;2.40;;;4.10;99.90;;;;;;5030835;28;20033;-67
2023/01/15 00:49:20;;;;;;;4.22;1.85;;;4.10;99.90;;;;;;5049430;28;20118;-63
2023/01/15 00:51:48;;;;;;;2.60;1.73;;;4.20;99.90;;;;;;5032381;28;20106;-65
2023/01/15 00:54:16;;;;;;;2.90;1.45;;;4.30;99.90;;;;;;5016420;28;20068;-65
2023/01/15 00:56:42;;;;;;;6.70;1.70;;;4.40;99.90;;;;;;5026411;28;20041;-64
2023/01/15 00:59:09;;;;;;;1.85;0.93;;;4.40;99.90;;;;;;5011777;28;20045;-60
2023/01/15 01:01:37;;;;;;;4.20;2.05;;;4.50;99.90;;;;;;5004521;28;20432;-64
2023/01/15 01:04:04;;;;;;;3.20;1.45;;;4.50;99.90;;;;;;5020188;28;20402;-63
2023/01/15 01:06:33;;;;;;;3.58;1.30;;;4.60;99.90;;;;;;5013445;28;20050;-65
2023/01/15 01:09:00;;;;;;;2.10;0.93;;;4.80;99.90;;;;;;5033617;28;20520;-65
2023/01/15 01:11:32;;;;;;;3.28;1.52;;;5.00;99.90;;;;;;5015484;28;20574;-65
2023/01/15 01:14:01;;;;;;;1.83;1.02;;;5.20;99.90;;;;;;5011556;28;20498;-64
2023/01/15 01:16:32;;;;;;;1.88;1.02;;;5.20;99.90;;;;;;5032932;28;20063;-63
2023/01/15 01:19:02;;;;;;;1.77;0.98;;;5.20;99.90;;;;;;5031447;28;20073;-61
2023/01/15 01:21:29;;;;;;;2.47;1.33;;;5.20;99.90;;;;;;5032014;28;20037;-63
2023/01/15 01:23:58;;;;;;;5.70;1.25;;;5.30;99.90;;;;;;5033029;28;20040;-61
2023/01/15 01:26:26;;;;;;;1.70;0.98;;;5.50;99.90;;;;;;5034414;28;20033;-61
2023/01/15 01:28:55;;;;;;;2.38;1.30;;;5.60;99.90;;;;;;5010705;28;20066;-61
2023/01/15 01:31:23;;;;;;;3.30;1.30;;;5.70;99.90;;;;;;5021806;28;20053;-61
2023/01/15 01:33:52;;;;;;;2.63;1.35;;;5.70;99.90;;;;;;5011220;28;20107;-61
2023/01/15 01:36:20;;;;;;;2.38;1.25;;;5.60;99.90;;;;;;5033277;28;20057;-63
2023/01/15 01:38:50;;;;;;;2.22;1.27;;;5.60;99.90;;;;;;5026498;28;20428;-62
2023/01/15 01:41:18;;;;;;;3.03;0.98;;;5.50;99.90;;;;;;5015973;28;20533;-62
2023/01/15 01:43:52;;;;;;;2.40;0.90;;;5.60;99.90;;;;;;5032121;28;20137;-64
2023/01/15 01:46:19;;;;;;;1.65;1.00;;;5.80;99.90;;;;;;5016135;28;20049;-66
2023/01/15 01:48:49;;;;;;;1.27;0.80;;;6.00;99.90;;;;;;5013085;28;20049;-67
2023/01/15 01:51:18;;;;;;;0.95;0.60;;;6.10;99.90;;;;;;5020738;28;20118;-65
2023/01/15 01:53:45;;;;;;;2.70;0.98;;;6.20;99.90;;;;;;5033129;28;20049;-66
2023/01/15 01:56:16;;;;;;;;;;;6.20;99.90;;;;;;5042520;28;20469;-65
2023/01/15 01:58:46;;;;;;;3.13;0.93;;;6.20;99.90;;;;;;5015150;28;19921;-64
2023/01/15 02:01:14;;;;;;;1.55;0.80;;;6.10;99.90;;;;;;5039109;28;20045;-64
2023/01/15 02:03:42;;;;;;;2.00;0.73;;;6.30;99.90;;;;;;5028164;28;20064;-63
2023/01/15 02:06:10;;;;;;;2.08;0.68;;;6.40;99.90;;;;;;5052622;28;20489;-63
2023/01/15 02:08:38;;;;;;;1.27;0.73;;;6.60;99.90;;;;;;5036249;28;20046;-64
2023/01/15 02:11:07;;;;;;;1.83;1.10;;;6.70;99.90;;;;;;5013445;28;20038;-63
2023/01/15 02:13:37;;;;;;;1.02;0.68;;;6.80;99.90;;;;;;5014447;28;20045;-64
2023/01/15 02:16:44;;;;;;;1.63;1.10;;;6.60;99.90;;;;;;5014691;28;20045;-65
2023/01/15 02:19:27;;;;;;;3.75;0.70;;;6.50;99.90;;;;;;5012557;28;20053;-63
2023/01/15 02:22:03;;;;;;;4.72;0.90;;;6.40;99.90;;;;;;5014569;28;20044;-65
2023/01/15 02:24:48;;;;;;;1.02;0.77;;;6.30;99.90;;;;;;5035123;28;20091;-64
2023/01/15 02:27:19;;;;;;;3.83;0.98;;;6.10;99.90;;;;;;5022764;28;20141;-64
2023/01/15 02:29:57;;;;;;;1.35;0.80;;;6.00;99.90;;;;;;5026294;28;20045;-64
2023/01/15 02:32:38;;;;;;;1.98;1.00;;;5.80;99.90;;;;;;5020811;28;20049;-63
2023/01/15 02:35:21;;;;;;;1.88;0.88;;;5.70;99.90;;;;;;5041785;28;20049;-63
2023/01/15 02:37:53;;;;;;;2.15;0.95;;;5.70;99.90;;;;;;4999004;28;20057;-65
2023/01/15 02:40:24;;;;;;;1.98;0.80;;;5.70;99.90;;;;;;5020790;28;20064;-63
2023/01/15 02:42:52;;;;;;;2.47;1.30;;;5.70;99.90;;;;;;5024281;28;20661;-64
2023/01/15 02:45:27;;;;;;;2.50;1.15;;;5.70;99.90;;;;;;5020251;28;20136;-64
2023/01/15 02:48:04;;;;;;;1.67;0.95;;;5.70;99.90;;;;;;4979648;28;20392;-63
2023/01/15 02:50:37;;;;;;;1.27;1.00;;;5.70;99.90;;;;;;5010996;28;20041;-63
2023/01/15 02:53:07;;;;;;;1.67;0.80;;;5.60;99.90;;;;;;5026273;28;20043;-62
2023/01/15 02:55:41;;;;;;;1.27;1.00;;;5.60;99.90;;;;;;5010244;28;20386;-63
2023/01/15 02:58:13;;;;;;;1.83;1.00;;;5.50;99.90;;;;;;5014200;28;20042;-62
2023/01/15 03:00:46;;;;;;;1.75;1.00;;;5.50;99.90;;;;;;5012553;28;20078;-63
2023/01/15 03:03:20;;;;;;;2.88;1.00;;;5.40;99.90;;;;;;5033777;28;20045;-63
2023/01/15 03:06:01;;;;;;;1.58;1.00;;;5.40;99.90;;;;;;5022972;28;20033;-63
2023/01/15 03:08:28;;;;;;;1.75;0.93;;;5.30;99.90;;;;;;5031613;28;20051;-65
2023/01/15 03:11:07;;;;;;;2.40;1.30;;;5.30;99.90;;;;;;5012307;28;20049;-65
2023/01/15 03:13:54;;;;;;;1.50;1.00;;;5.30;99.90;;;;;;5011646;28;20053;-65
2023/01/15 03:16:34;;;;;;;3.10;1.50;;;5.30;99.90;;;;;;5026923;28;20044;-67
2023/01/15 03:19:08;;;;;;;2.40;1.23;;;5.30;99.90;;;;;;5012702;28;20046;-64
2023/01/15 03:21:58;;;;;;;2.45;0.98;;;5.30;99.90;;;;;;5013857;28;20041;-65
2023/01/15 03:24:36;;;;;;;1.73;0.90;;;5.30;99.90;;;;;;5026099;28;20114;-65
2023/01/15 03:27:04;;;;;;;2.45;1.10;;;5.30;99.90;;;;;;5007715;28;20406;-62
2023/01/15 03:29:37;;;;;;;1.60;1.10;;;5.30;99.90;;;;;;5013192;28;20041;-63
2023/01/15 03:32:05;;;;;;;1.65;1.08;;;5.30;99.90;;;;;;5016987;28;20053;-62
2023/01/15 03:34:45;;;;;;;5.22;1.50;;;5.30;99.90;;;;;;5030567;28;20064;-62
2023/01/15 03:37:18;;;;;;;1.63;1.10;;;5.20;99.90;;;;;;5033280;28;20049;-64
2023/01/15 03:39:46;;;;;;;2.20;0.98;;;5.20;99.90;;;;;;5033852;28;20030;-62
2023/01/15 03:42:31;;;;;;;3.13;1.00;;;5.20;99.90;;;;;;5027301;28;20551;-62
2023/01/15 03:45:23;;;;;;;3.28;1.10;;;5.20;99.90;;;;;;5032718;28;20037;-62
2023/01/15 03:48:17;;;;;;;2.33;1.02;;;5.20;99.90;;;;;;5012561;28;20049;-64
2023/01/15 03:51:00;;;;;;;1.63;0.85;;;5.10;99.90;;;;;;5038918;28;20047;-64
2023/01/15 03:53:43;;;;;;;2.30;1.10;;;5.10;99.90;;;;;;5023184;28;20076;-64
2023/01/15 03:56:34;;;;;;;2.05;1.15;;;5.00;99.90;;;;;;5019518;28;20120;-62
2023/01/15 03:59:12;;;;;;;2.05;1.10;;;5.00;99.90;;;;;;5030188;28;20589;-62
2023/01/15 04:01:52;;;;;;;2.55;1.00;;;5.00;99.90;;;;;;5032126;28;20051;-64
2023/01/15 04:04:24;;;;;;;2.42;1.13;;;5.00;99.90;;;;;;5009103;28;20038;-64
2023/01/15 04:06:54;;;;;;;1.80;1.30;;;5.00;99.90;;;;;;5024618;28;20037;-64
2023/01/15 04:09:22;;;;;;;5.30;1.30;;;5.10;99.90;;;;;;5009602;28;20459;-64
2023/01/15 04:11:52;;;;;;;1.48;0.90;;;5.10;99.90;;;;;;4993395;28;20525;-64
2023/01/15 04:14:19;;;;;;;2.17;1.13;;;5.10;99.90;;;;;;5019297;28;20049;-62
2023/01/15 04:16:49;;;;;;;2.00;1.00;;;5.20;99.90;;;;;;5029099;28;20410;-62
2023/01/15 04:19:16;;;;;;;1.42;0.95;;;5.20;99.90;;;;;;5030728;28;20116;-62
2023/01/15 04:21:51;;;;;;;1.73;1.27;;;5.20;99.90;;;;;;5011215;28;20040;-62
2023/01/15 04:24:57;;;;;;;1.92;0.98;;;5.20;99.90;;;;;;5020818;28;20167;-62
2023/01/15 04:27:26;;;;;;;1.52;0.88;;;5.20;99.90;;;;;;5029533;28;20183;-62
2023/01/15 04:29:52;;;;;;;1.98;0.95;;;5.30;99.90;;;;;;5035687;28;20567;-64
2023/01/15 04:32:19;;;;;;;1.25;0.90;;;5.40;99.90;;;;;;5038133;28;20506;-64
2023/01/15 04:34:46;;;;;;;1.42;0.75;;;5.40;99.90;;;;;;5035933;28;20146;-64
2023/01/15 04:37:13;;;;;;;2.03;0.70;;;5.40;99.90;;;;;;5037820;28;20101;-64
2023/01/15 04:39:40;;;;;;;2.95;0.90;;;5.40;99.90;;;;;;5030055;28;20482;-64
2023/01/15 04:44:56;;;;;;;2.40;0.88;;;5.70;99.90;;;;;;5023043;28;20049;-64
2023/01/15 04:47:23;;;;;;;1.60;0.90;;;5.70;99.90;;;;;;5028880;28;20084;-64
2023/01/15 04:49:50;;;;;;;2.38;1.10;;;5.70;99.90;;;;;;5049853;28;20094;-64
2023/01/15 04:52:17;;;;;;;1.45;0.88;;;5.70;99.90;;;;;;5032461;28;20069;-64
2023/01/15 04:54:44;;;;;;;1.50;0.80;;;5.60;99.90;;;;;;5030440;28;20096;-64
2023/01/15 04:57:10;;;;;;;2.28;1.00;;;5.50;99.90;;;;;;5028000;28;20100;-64
2023/01/15 04:59:37;;;;;;;1.33;0.70;;;5.50;99.90;;;;;;5050154;28;20552;-64
2023/01/15 05:02:04;;;;;;;2.15;1.20;;;5.50;99.90;;;;;;5013581;28;20049;-64
2023/01/15 05:04:33;;;;;;;1.98;1.00;;;5.50;99.90;;;;;;5016838;28;20120;-64
2023/01/15 05:07:01;;;;;;;2.17;0.80;;;5.50;99.90;;;;;;5027351;28;20037;-64
2023/01/15 05:09:28;;;;;;;7.03;2.67;;;5.50;99.90;;;;;;5029810;28;20095;-64
2023/01/15 05:11:55;;;;;;;3.40;1.40;;;5.60;99.90;;;;;;5027419;28;20598;-64
2023/01/15 05:14:22;;;;;;;2.80;0.85;;;5.80;99.90;;;;;;5029171;28;20054;-62
2023/01/15 05:16:49;;;;;;;1.95;1.02;;;5.80;99.90;;;;;;5030058;28;20045;-64
2023/01/15 05:19:15;;;;;;;1.88;1.17;;;5.90;99.90;;;;;;5023629;28;20517;-64
2023/01/15 05:21:43;;;;;;;3.15;1.30;;;5.90;99.90;;;;;;5028741;28;20309;-62
2023/01/15 05:24:15;;;;;;;10.23;4.50;;;5.80;99.90;;;;;;5049693;28;20183;-64
2023/01/15 05:26:42;;;;;;;4.30;1.70;;;5.70;99.90;;;;;;5032373;28;20107;-62
2023/01/15 05:29:10;;;;;;;3.45;1.92;;;5.60;99.90;;;;;;5032241;28;20107;-64
2023/01/15 05:31:37;;;;;;;3.90;2.13;;;5.70;99.90;;;;;;5049522;28;20079;-64
2023/01/15 05:34:04;;;;;;;5.95;2.97;;;5.80;99.90;;;;;;5047662;28;20042;-64
2023/01/15 05:36:31;;;;;;;7.97;2.90;;;5.80;99.90;;;;;;5033917;28;20041;-64
2023/01/15 05:39:08;;;;;;;3.90;2.15;;;5.80;99.90;;;;;;5063189;22;20118;-60
2023/01/15 05:42:24;;;;;;;18.20;6.50;;;5.80;99.90;;;;;;5064611;28;20035;-60
2023/01/15 05:44:51;;;;;;;14.60;6.10;;;5.90;99.90;;;;;;5058941;28;20090;-60
2023/01/15 05:47:18;;;;;;;;;;;5.90;99.90;;;;;;5066852;28;20493;-60
2023/01/15 05:49:47;;;;;;;12.43;4.40;;;5.80;99.90;;;;;;5051219;28;19952;-60
2023/01/15 05:52:13;;;;;;;3.88;1.40;;;6.00;99.90;;;;;;5047873;28;20111;-60
2023/01/15 05:54:40;;;;;;;2.42;1.40;;;6.00;99.90;;;;;;5057559;28;20513;-60
2023/01/15 05:57:11;;;;;;;1.73;0.90;;;6.00;99.90;;;;;;5073330;28;20044;-60
2023/01/15 05:59:38;;;;;;;11.07;3.85;;;5.90;99.90;;;;;;5055383;28;20122;-60
2023/01/15 06:02:05;;;;;;;5.00;1.90;;;6.00;99.90;;;;;;5061380;28;20124;-60
2023/01/15 06:04:32;;;;;;;6.35;1.77;;;6.10;99.90;;;;;;5071774;28;20371;-60
2023/01/15 06:06:59;;;;;;;12.15;4.57;;;6.30;99.90;;;;;;5072131;28;20056;-60
2023/01/15 06:09:26;;;;;;;2.80;1.80;;;6.40;99.90;;;;;;5047366;28;20045;-60
2023/01/15 06:11:54;;;;;;;3.38;1.63;;;6.40;99.90;;;;;;5044619;28;20052;-60
2023/01/15 06:14:21;;;;;;;;;;;6.30;99.90;;;;;;5066054;28;20179;-60
2023/01/15 06:16:48;;;;;;;2.03;1.10;;;6.30;99.90;;;;;;5071665;28;20646;-60
2023/01/15 06:19:14;;;;;;;5.65;2.42;;;6.30;99.90;;;;;;5052382;28;20490;-60
2023/01/15 06:21:41;;;;;;;3.30;2.00;;;6.40;99.90;;;;;;5041655;28;20069;-59
2023/01/15 06:24:08;;;;;;;2.35;1.30;;;6.40;99.90;;;;;;5067102;28;20048;-60
2023/01/15 06:26:37;;;;;;;1.25;0.52;;;6.50;99.90;;;;;;5070644;28;20451;-60
2023/01/15 06:29:04;;;;;;;1.08;0.73;;;6.60;99.90;;;;;;5052995;28;20098;-60
2023/01/15 06:31:31;;;;;;;2.53;1.20;;;6.70;99.90;;;;;;5044650;28;20049;-60
2023/01/15 06:33:58;;;;;;;;;;;6.70;99.90;;;;;;5068864;28;20056;-60
2023/01/15 06:36:26;;;;;;;2.72;1.13;;;6.50;99.90;;;;;;5051667;28;19928;-60
2023/01/15 06:38:52;;;;;;;3.47;1.20;;;6.40;99.90;;;;;;5050197;28;20706;-60
2023/01/15 06:47:20;;;;;;;2.15;1.27;;;6.30;99.90;;;;;;5046461;28;20024;-60
2023/01/15 06:49:52;;;;;;;2.30;1.30;;;6.30;99.90;;;;;;5060792;28;20045;-60
2023/01/15 06:52:18;;;;;;;3.90;2.17;;;6.30;99.90;;;;;;5051073;28;20095;-60
2023/01/15 06:54:45;;;;;;;2.08;1.00;;;6.20;99.90;;;;;;5048810;28;20053;-60
2023/01/15 06:57:12;;;;;;;2.58;1.30;;;6.20;99.90;;;;;;5061517;28;20048;-60
2023/01/15 06:59:39;;;;;;;2.85;1.40;;;6.30;99.90;;;;;;5053617;28;20085;-60
2023/01/15 07:02:06;;;;;;;2.22;1.20;;;6.30;99.90;;;;;;5049085;28;20045;-59
2023/01/15 07:04:32;;;;;;;3.80;1.13;;;6.30;99.90;;;;;;5056681;28;20101;-59
2023/01/15 07:06:59;;;;;;;1.70;1.20;;;6.30;99.90;;;;;;5067286;28;20146;-60
2023/01/15 07:09:26;;;;;;;3.17;1.80;;;6.30;99.90;;;;;;5071662;28;20060;-60
2023/01/15 07:11:53;;;;;;;2.30;1.13;;;6.20;99.90;;;;;;5051268;28;20056;-60
2023/01/15 07:14:22;;;;;;;2.45;1.05;;;6.10;99.90;;;;;;5051863;28;20079;-60
2023/01/15 07:16:50;;;;;;;4.10;1.15;;;6.00;99.90;;;;;;5051624;28;20045;-60
2023/01/15 07:19:18;;;;;;;2.40;1.50;;;6.00;99.90;;;;;;5052417;28;20056;-60
2023/01/15 07:21:45;;;;;;;3.67;1.40;;;5.90;99.90;;;;;;5070253;28;20566;-60
2023/01/15 07:24:13;;;;;;;2.15;1.27;;;5.80;99.90;;;;;;5064628;28;20048;-60
2023/01/15 07:26:40;;;;;;;3.97;1.48;;;5.70;99.90;;;;;;5070046;28;20044;-60
2023/01/15 07:29:07;;;;;;;2.33;1.42;;;5.80;99.90;;;;;;5068625;28;20056;-60
2023/01/15 07:31:34;;;;;;;4.88;1.95;;;5.80;99.90;;;;;;5043887;28;20573;-60
2023/01/15 07:34:01;;;;;;;4.20;1.45;;;5.80;99.90;;;;;;5047859;28;20076;-60
2023/01/15 07:36:28;;;;;;;2.90;1.48;;;5.80;99.90;;;;;;5068359;28;20524;-60
2023/01/15 07:38:54;;;;;;;3.55;1.95;;;5.80;99.90;;;;;;5067281;28;20048;-60
2023/01/15 07:49:45;;;;;;;3.88;1.65;;;5.80;99.90;;;;;;5057932;28;20107;-59
2023/01/15 07:52:17;;;;;;;3.72;2.03;;;5.80;99.90;;;;;;5043915;28;20072;-59
2023/01/15 07:54:45;;;;;;;3.95;1.85;;;5.80;99.90;;;;;;5064183;28;20044;-60
2023/01/15 07:57:15;;;;;;;3.50;1.55;;;5.80;99.90;;;;;;5070705;28;20166;-60
2023/01/15 07:59:42;;;;;;;26.73;10.38;;;5.80;99.90;;;;;;5054979;28;20099;-60
2023/01/15 08:02:08;;;;;;;7.43;3.50;;;5.80;99.90;;;;;;5042981;28;20067;-60
2023/01/15 08:04:35;;;;;;;4.25;2.30;;;5.80;99.90;;;;;;5049895;28;20044;-60
2023/01/15 08:07:03;;;;;;;6.82;2.40;;;5.80;99.90;;;;;;5070525;28;20060;-60
2023/01/15 08:09:30;;;;;;;3.25;1.80;;;5.90;99.90;;;;;;5052810;28;20090;-59
2023/01/15 08:17:35;;;;;;;7.00;3.08;;;5.90;99.90;;;;;;5049669;28;20099;-60
2023/01/15 08:20:05;;;;;;;5.55;2.28;;;5.90;99.90;;;;;;5049189;28;20041;-59
2023/01/15 08:22:32;;;;;;;2.00;1.23;;;5.90;99.90;;;;;;5049505;28;20037;-59
2023/01/15 08:24:58;;;;;;;5.68;3.05;;;5.90;99.90;;;;;;5047698;28;20565;-60
2023/01/15 08:27:26;;;;;;;8.18;3.70;;;5.90;99.90;;;;;;5063321;28;20482;-60
2023/01/15 08:29:52;;;;;;;7.57;3.88;;;5.90;99.90;;;;;;5049389;28;20095;-59
2023/01/15 08:32:19;;;;;;;6.88;3.10;;;5.90;99.90;;;;;;5048665;28;20052;-60
2023/01/15 08:34:46;;;;;;;13.52;5.03;;;6.00;99.90;;;;;;5052685;28;20496;-60
2023/01/15 08:37:13;;;;;;;13.75;5.80;;;6.00;99.90;;;;;;5061382;28;20048;-60
2023/01/15 08:39:39;;;;;;;13.27;5.45;;;6.10;99.90;;;;;;5053557;28;20056;-60
2023/01/15 08:42:07;;;;;;;20.85;8.48;;;6.10;99.90;;;;;;5058782;28;20427;-60
2023/01/15 08:44:33;;;;;;;;;;;6.20;99.90;;;;;;5050573;28;20044;-60
2023/01/15 08:47:00;;;;;;;59.78;22.65;;;6.20;99.90;;;;;;5044927;28;20021;-60
2023/01/15 08:49:27;;;;;;;23.25;10.93;;;6.30;99.90;;;;;;5050956;28;20475;-60
2023/01/15 08:51:53;;;;;;;28.88;14.65;;;6.40;99.90;;;;;;5058423;28;20049;-61
2023/01/15 08:54:23;;;;;;;15.60;7.53;;;6.50;99.90;;;;;;5049750;28;20049;-60
2023/01/15 08:56:50;;;;;;;12.52;6.50;;;6.50;99.90;;;;;;5045824;28;20417;-60
2023/01/15 08:59:17;;;;;;;9.43;5.40;;;6.60;99.90;;;;;;5054221;28;20069;-60
2023/01/15 09:01:44;;;;;;;3.67;2.53;;;6.60;99.90;;;;;;5061629;28;20041;-60
2023/01/15 09:04:16;;;;;;;3.45;2.00;;;6.70;99.90;;;;;;5074473;28;20044;-60
2023/01/15 09:06:43;;;;;;;3.85;1.90;;;6.80;99.90;;;;;;5060710;28;20099;-60
2023/01/15 09:09:11;;;;;;;9.13;4.25;;;6.90;99.90;;;;;;5052280;28;20102;-60
2023/01/15 09:11:39;;;;;;;3.45;2.03;;;7.00;99.90;;;;;;5049886;28;20072;-60
2023/01/15 09:14:07;;;;;;;2.95;1.80;;;7.10;99.90;;;;;;5054232;28;20056;-60
2023/01/15 09:16:54;;;;;;;4.82;1.88;;;7.20;99.90;;;;;;5052853;28;20037;-60
2023/01/15 09:19:21;;;;;;;2.80;1.88;;;7.30;99.90;;;;;;5059075;28;20051;-60
2023/01/15 09:21:48;;;;;;;3.72;1.92;;;7.30;99.90;;;;;;5050364;28;20106;-60
2023/01/15 09:24:15;;;;;;;3.95;1.92;;;7.40;99.90;;;;;;5051168;28;20049;-60
2023/01/15 09:26:41;;;;;;;3.15;1.85;;;7.40;99.90;;;;;;5052305;28;20071;-60
2023/01/15 09:29:09;;;;;;;4.30;1.77;;;7.40;99.90;;;;;;5051688;28;20080;-60
2023/01/15 09:31:36;;;;;;;4.68;1.90;;;7.40;99.90;;;;;;5058253;28;20045;-60
2023/01/15 09:34:03;;;;;;;3.30;1.85;;;7.40;99.90;;;;;;5072398;28;20036;-60
2023/01/15 09:36:32;;;;;;;4.45;1.88;;;7.40;99.90;;;;;;5053668;28;20045;-60
2023/01/15 09:39:00;;;;;;;6.10;3.30;;;7.40;99.90;;;;;;5052689;28;20567;-60
2023/01/15 09:42:08;;;;;;;4.18;2.25;;;7.50;99.90;;;;;;5050960;28;20525;-60
2023/01/15 09:45:06;;;;;;;3.20;2.00;;;7.60;99.90;;;;;;5035876;28;20426;-60
2023/01/15 09:47:43;;;;;;;5.50;3.33;;;7.70;99.90;;;;;;5073489;28;20102;-60
2023/01/15 09:50:42;;;;;;;6.13;3.50;;;7.80;99.90;;;;;;5061369;28;20068;-60
2023/01/15 09:53:27;;;;;;;4.25;2.67;;;7.90;99.90;;;;;;5072871;28;20072;-60
2023/01/15 09:55:54;;;;;;;4.28;2.60;;;8.00;99.90;;;;;;5033057;28;20496;-60
2023/01/15 09:58:30;;;;;;;8.38;2.88;;;8.20;99.90;;;;;;5034803;28;20045;-60
2023/01/15 10:00:57;;;;;;;4.35;1.60;;;8.20;99.90;;;;;;5045616;28;20040;-61
2023/01/15 10:03:42;;;;;;;8.43;2.05;;;8.20;99.90;;;;;;5052167;28;20040;-60
2023/01/15 10:06:31;;;;;;;4.05;1.95;;;8.20;99.90;;;;;;5060077;28;20540;-60
2023/01/15 10:09:16;;;;;;;3.33;1.65;;;8.20;99.90;;;;;;5060801;28;20130;-60
2023/01/15 10:15:13;;;;;;;4.68;1.95;;;8.40;99.90;;;;;;5058262;28;20105;-60
2023/01/15 10:17:48;;;;;;;7.13;3.58;;;8.40;99.90;;;;;;5068469;28;20049;-60
2023/01/15 10:20:52;;;;;;;6.68;1.70;;;8.50;99.90;;;;;;5052842;28;20563;-60
2023/01/15 10:23:28;;;;;;;4.25;1.50;;;8.50;99.90;;;;;;5047365;28;20138;-60
2023/01/15 10:26:01;;;;;;;8.90;1.70;;;8.60;99.90;;;;;;5055186;28;20098;-60
2023/01/15 10:28:44;;;;;;;4.13;1.98;;;8.70;99.90;;;;;;5058854;28;20094;-61
2023/01/15 10:31:23;;;;;;;8.95;2.33;;;8.80;99.90;;;;;;5052281;28;20595;-60
2023/01/15 10:34:11;;;;;;;5.97;2.40;;;8.90;99.90;;;;;;5049575;28;20068;-60
2023/01/15 10:36:50;;;;;;;3.75;1.67;;;9.00;99.90;;;;;;5051447;28;20037;-60
2023/01/15 10:39:29;;;;;;;5.30;2.00;;;9.10;99.90;;;;;;5052601;28;20127;-61
2023/01/15 10:42:13;;;;;;;5.90;2.72;;;9.00;99.90;;;;;;5048436;28;20029;-60
2023/01/15 10:44:51;;;;;;;4.65;1.73;;;9.00;99.90;;;;;;5047565;28;20119;-60
2023/01/15 10:47:25;;;;;;;3.47;1.75;;;9.00;99.90;;;;;;5068744;28;20048;-60
2023/01/15 10:49:52;;;;;;;4.15;1.95;;;9.00;99.90;;;;;;5071243;28;20492;-60
2023/01/15 10:52:30;;;;;;;4.93;1.60;;;8.90;99.90;;;;;;5059887;28;20045;-60
2023/01/15 10:55:28;;;;;;;5.22;1.67;;;8.90;99.90;;;;;;5057308;28;20044;-60
2023/01/15 10:58:00;;;;;;;3.22;1.80;;;8.70;99.90;;;;;;5053354;28;20390;-60
2023/01/15 11:00:37;;;;;;;4.82;2.10;;;8.60;99.90;;;;;;5051795;28;20141;-60
2023/01/15 11:03:15;;;;;;;4.03;2.08;;;8.60;99.90;;;;;;5049851;28;20032;-60
2023/01/15 11:05:45;;;;;;;5.03;1.88;;;8.50;99.90;;;;;;5068336;28;20036;-60
2023/01/15 11:08:27;;;;;;;4.80;1.50;;;8.40;99.90;;;;;;5051584;28;20097;-60
2023/01/15 11:20:51;;;;;;;5.00;2.17;;;8.40;99.90;;;;;;5049630;28;20052;-60
2023/01/15 11:23:20;;;;;;;5.95;2.15;;;8.40;99.90;;;;;;5048454;28;20032;-59
2023/01/15 11:25:52;;;;;;;3.15;1.77;;;8.30;99.90;;;;;;5062632;28;20053;-60
2023/01/15 11:28:38;;;;;;;4.00;1.83;;;8.20;99.90;;;;;;5045946;28;20037;-60
2023/01/15 11:31:07;;;;;;;7.93;2.03;;;8.10;99.90;;;;;;5043959;28;20049;-60
2023/01/15 11:33:34;;;;;;;4.72;2.22;;;8.20;99.90;;;;;;5050814;28;20048;-60
2023/01/15 11:36:04;;;;;;;6.25;1.90;;;8.20;99.90;;;;;;5048673;28;20061;-59
2023/01/15 11:38:43;;;;;;;4.82;1.88;;;8.30;99.90;;;;;;5060014;22;20131;-64
2023/01/15 11:41:22;;;;;;;2.80;1.75;;;8.30;99.90;;;;;;5021977;28;20041;-64
2023/01/15 11:52:22;;;;;;;2.33;0.65;;;8.30;99.90;;;;;;5004366;28;20275;-64
2023/01/15 11:54:53;;;;;;;0.85;0.50;;;8.40;99.90;;;;;;4992049;28;20062;-64
2023/01/15 11:57:35;;;;;;;0.68;0.20;;;8.30;99.90;;;;;;5005583;28;20384;-64
2023/01/15 12:00:03;;;;;;;0.63;0.32;;;8.00;99.90;;;;;;5004711;28;20054;-64
2023/01/15 12:02:45;;;;;;;0.65;0.10;;;7.80;99.90;;;;;;5009919;28;20821;-64
2023/01/15 12:05:20;;;;;;;0.10;0.10;;;7.70;99.90;;;;;;4994466;28;20495;-64
2023/01/15 12:07:49;;;;;;;1.75;0.30;;;7.50;99.90;;;;;;5003372;28;20052;-64
2023/01/15 12:13:34;;;;;;;0.32;0.22;;;7.30;99.90;;;;;;4976915;28;20586;-64
2023/01/15 12:16:28;;;;;;;0.30;0.30;;;7.20;99.90;;;;;;4991799;28;20092;-65
2023/01/15 12:19:12;;;;;;;0.70;0.30;;;7.10;99.90;;;;;;4986978;28;20046;-64
2023/01/15 12:22:06;;;;;;;0.20;0.10;;;7.10;99.90;;;;;;4992075;28;20042;-65
2023/01/15 12:24:42;;;;;;;0.13;0.13;;;7.10;99.90;;;;;;5006268;28;20081;-65
2023/01/15 12:27:28;;;;;;;2.95;0.40;;;7.10;99.90;;;;;;4991040;28;20050;-65
2023/01/15 12:30:01;;;;;;;0.47;0.20;;;7.00;99.90;;;;;;5001264;28;20050;-65
2023/01/15 12:32:33;;;;;;;0.45;0.13;;;7.00;99.90;;;;;;4989174;28;20054;-64
2023/01/15 12:35:07;;;;;;;1.20;0.30;;;6.90;99.90;;;;;;4990997;28;20046;-64
2023/01/15 12:38:11;;;;;;;0.15;0.10;;;6.90;99.90;;;;;;4993051;28;20073;-64
2023/01/15 12:40:39;;;;;;;0.20;0.15;;;6.90;99.90;;;;;;4978768;28;20137;-64
2023/01/15 12:46:03;;;;;;;0.75;0.20;;;7.00;99.90;;;;;;4997203;28;20550;-64
2023/01/15 12:48:58;;;;;;;0.38;0.28;;;7.00;99.90;;;;;;4996272;28;20049;-63
2023/01/15 12:51:30;;;;;;;1.60;0.20;;;7.00;99.90;;;;;;4989333;28;20046;-63
2023/01/15 12:54:05;;;;;;;1.48;0.30;;;7.10;99.90;;;;;;5002157;28;20061;-63
2023/01/15 12:57:01;;;;;;;0.00;0.00;;;7.00;99.90;;;;;;4992873;28;20054;-64
2023/01/15 12:59:35;;;;;;;0.10;0.10;;;6.90;99.90;;;;;;4990471;28;20046;-63
2023/01/15 13:02:21;;;;;;;2.47;0.10;;;6.80;99.90;;;;;;4998119;28;20057;-64
2023/01/15 13:04:57;;;;;;;0.55;0.20;;;6.70;99.90;;;;;;4985819;28;20513;-63
2023/01/15 13:07:40;;;;;;;0.13;0.10;;;6.60;99.90;;;;;;5010816;28;20065;-63
2023/01/15 13:10:18;;;;;;;0.95;0.10;;;6.50;99.90;;;;;;5009293;28;20093;-64
2023/01/15 13:12:45;;;;;;;0.40;0.10;;;6.40;99.90;;;;;;4995098;28;20486;-64
2023/01/15 13:15:17;;;;;;;0.22;0.10;;;6.40;99.90;;;;;;5004973;28;20050;-63
2023/01/15 13:18:03;;;;;;;0.15;0.05;;;6.30;99.90;;;;;;5001828;28;20050;-63
2023/01/15 13:20:43;;;;;;;0.55;0.22;;;6.30;99.90;;;;;;5000892;28;20405;-63
2023/01/15 13:23:34;;;;;;;1.45;0.50;;;6.20;99.90;;;;;;4990791;28;20050;-63
2023/01/15 13:26:16;;;;;;;0.57;0.40;;;6.20;99.90;;;;;;4998961;28;20105;-63
2023/01/15 13:29:01;;;;;;;1.13;0.32;;;6.20;99.90;;;;;;4990446;28;20112;-63
2023/01/15 13:31:49;;;;;;;2.97;0.40;;;6.20;99.90;;;;;;4990097;28;20101;-63
2023/01/15 13:34:36;;;;;;;0.05;0.05;;;6.20;99.90;;;;;;5004271;28;20045;-63
2023/01/15 13:37:28;;;;;;;0.00;0.00;;;6.20;99.90;;;;;;5002496;28;20050;-63
2023/01/15 13:40:03;;;;;;;0.55;0.40;;;6.20;99.90;;;;;;5017015;28;20038;-63
2023/01/15 13:42:31;;;;;;;0.50;0.15;;;6.10;99.90;;;;;;4996949;28;20038;-63
2023/01/15 13:45:26;;;;;;;0.40;0.00;;;6.10;99.90;;;;;;4981146;28;20050;-63
2023/01/15 13:48:22;;;;;;;2.42;1.40;;;6.00;99.90;;;;;;5008108;28;20062;-63
2023/01/15 13:50:57;;;;;;;0.25;0.03;;;5.90;99.90;;;;;;4982283;28;20053;-63
2023/01/15 13:53:44;;;;;;;3.33;0.30;;;5.80;99.90;;;;;;4992378;28;20108;-63
2023/01/15 13:56:14;;;;;;;0.80;0.17;;;5.70;99.90;;;;;;5003481;28;20092;-64
2023/01/15 13:58:56;;;;;;;5.28;0.30;;;5.60;99.90;;;;;;5011806;28;20037;-63
2023/01/15 14:01:33;;;;;;;2.05;0.20;;;5.50;99.90;;;;;;5012707;28;20053;-63
2023/01/15 14:04:03;;;;;;;0.43;0.10;;;5.40;99.90;;;;;;5009569;28;20046;-63
2023/01/15 14:06:42;;;;;;;0.65;0.10;;;5.30;99.90;;;;;;4996709;28;20038;-63
2023/01/15 14:09:11;;;;;;;0.30;0.10;;;5.30;99.90;;;;;;5002634;28;20080;-63
2023/01/15 14:11:40;;;;;;;0.75;0.10;;;5.30;99.90;;;;;;4991351;28;20053;-63
2023/01/15 14:14:32;;;;;;;0.50;0.10;;;5.30;99.90;;;;;;5004340;28;20042;-63
2023/01/15 14:17:24;;;;;;;2.40;0.10;;;5.20;99.90;;;;;;4995378;28;20041;-63
2023/01/15 14:20:21;;;;;;;0.10;0.10;;;5.20;99.90;;;;;;4996741;28;20046;-63
2023/01/15 14:23:07;;;;;;;0.08;0.08;;;5.20;99.90;;;;;;4997532;28;20399;-63
2023/01/15 14:25:48;;;;;;;0.22;0.10;;;5.20;99.90;;;;;;5000008;28;20045;-63